createdAt,value
2022-11-30T00:02:04.260Z,4.85
2022-11-30T00:04:26.922Z,4.81
2022-11-30T00:06:49.653Z,4.71
2022-11-30T00:09:13.230Z,4.62
2022-11-30T00:11:35.897Z,4.67
2022-11-30T00:13:58.451Z,4.68
2022-11-30T00:16:21.960Z,4.71
2022-11-30T00:18:44.553Z,4.61
2022-11-30T00:21:10.542Z,4.65
2022-11-30T00:23:37.559Z,4.81
2022-11-30T00:26:05.660Z,4.84
2022-11-30T00:28:30.832Z,4.78
2022-11-30T00:31:04.931Z,4.85
2022-11-30T00:33:28.323Z,4.81
2022-11-30T00:35:58.505Z,4.81
2022-11-30T00:38:21.093Z,4.81
2022-11-30T00:40:43.624Z,4.79
2022-11-30T00:43:06.407Z,4.82
2022-11-30T00:45:28.952Z,4.87
2022-11-30T00:47:51.805Z,4.91
2022-11-30T00:50:14.379Z,4.93
2022-11-30T00:52:36.902Z,4.98
2022-11-30T00:55:02.799Z,5.04
2022-11-30T00:57:26.554Z,5.09
2022-11-30T00:59:49.153Z,5.00
2022-11-30T01:02:12.776Z,4.95
2022-11-30T01:04:35.375Z,5.11
2022-11-30T01:06:57.859Z,5.05
2022-11-30T01:09:20.448Z,5.11
2022-11-30T01:11:43.111Z,5.08
2022-11-30T01:14:05.757Z,5.00
2022-11-30T01:16:32.009Z,4.96
2022-11-30T01:18:55.052Z,4.93
2022-11-30T01:21:21.005Z,4.89
2022-11-30T01:23:44.207Z,4.92
2022-11-30T01:26:08.259Z,4.91
2022-11-30T01:28:31.399Z,4.84
2022-11-30T01:31:05.473Z,4.84
2022-11-30T01:33:28.147Z,4.82
2022-11-30T01:35:59.201Z,4.85
2022-11-30T01:38:21.793Z,4.84
2022-11-30T01:40:50.678Z,4.91
2022-11-30T01:43:13.298Z,4.92
2022-11-30T01:45:35.857Z,4.96
2022-11-30T01:47:58.579Z,4.93
2022-11-30T01:50:41.492Z,4.96
2022-11-30T01:53:05.521Z,4.92
2022-11-30T01:55:28.138Z,4.98
2022-11-30T01:57:53.087Z,4.93
2022-11-30T02:00:16.420Z,5.00
2022-11-30T02:02:56.830Z,5.11
2022-11-30T02:05:21.109Z,5.18
2022-11-30T02:07:44.271Z,5.20
2022-11-30T02:10:07.473Z,5.13
2022-11-30T02:12:56.611Z,5.25
2022-11-30T02:15:25.207Z,5.33
2022-11-30T02:18:01.810Z,5.23
2022-11-30T02:20:33.569Z,5.26
2022-11-30T02:23:15.369Z,5.13
2022-11-30T02:26:03.568Z,5.11
2022-11-30T02:28:32.283Z,5.19
2022-11-30T02:30:57.984Z,5.09
2022-11-30T02:33:27.020Z,5.09
2022-11-30T02:35:55.345Z,5.15
2022-11-30T02:38:24.044Z,5.19
2022-11-30T02:40:46.630Z,5.18
2022-11-30T02:43:09.336Z,5.13
2022-11-30T02:45:40.775Z,5.09
2022-11-30T02:48:11.727Z,5.15
2022-11-30T02:50:52.868Z,5.09
2022-11-30T02:53:15.501Z,5.08
2022-11-30T02:55:38.174Z,5.13
2022-11-30T02:58:01.278Z,5.11
2022-11-30T03:00:24.252Z,5.19
2022-11-30T03:02:47.901Z,5.15
2022-11-30T03:05:10.354Z,5.18
2022-11-30T03:07:33.036Z,5.18
2022-11-30T03:09:55.970Z,5.20
2022-11-30T03:12:18.512Z,5.13
2022-11-30T03:14:41.189Z,5.13
2022-11-30T03:17:04.237Z,5.20
2022-11-30T03:19:27.000Z,5.25
2022-11-30T03:21:49.577Z,5.18
2022-11-30T03:24:12.224Z,5.22
2022-11-30T03:26:34.845Z,5.25
2022-11-30T03:28:57.434Z,5.19
2022-11-30T03:31:20.068Z,5.27
2022-11-30T03:33:43.600Z,5.19
2022-11-30T03:36:08.699Z,5.12
2022-11-30T03:38:31.902Z,5.12
2022-11-30T03:41:08.707Z,5.11
2022-11-30T03:43:31.399Z,5.23
2022-11-30T03:45:53.972Z,5.20
2022-11-30T03:48:16.496Z,5.16
2022-11-30T03:50:39.083Z,5.25
2022-11-30T03:53:01.699Z,5.18
2022-11-30T03:55:24.236Z,5.12
2022-11-30T03:57:46.849Z,5.13
2022-11-30T04:00:09.963Z,5.22
2022-11-30T04:02:38.944Z,5.19
2022-11-30T04:05:04.516Z,5.12
2022-11-30T04:07:27.159Z,5.09
2022-11-30T04:09:49.971Z,5.11
2022-11-30T04:12:12.667Z,5.25
2022-11-30T04:14:35.288Z,5.27
2022-11-30T04:16:57.739Z,5.20
2022-11-30T04:19:20.432Z,5.18
2022-11-30T04:21:43.081Z,5.26
2022-11-30T04:24:06.134Z,5.37
2022-11-30T04:26:28.749Z,5.53
2022-11-30T04:28:51.325Z,5.44
2022-11-30T04:31:14.110Z,5.37
2022-11-30T04:33:37.147Z,5.39
2022-11-30T04:36:03.475Z,5.39
2022-11-30T04:38:26.981Z,5.50
2022-11-30T04:40:49.911Z,5.51
2022-11-30T04:43:13.303Z,5.46
2022-11-30T04:45:35.942Z,5.44
2022-11-30T04:47:58.596Z,5.57
2022-11-30T04:50:21.277Z,5.43
2022-11-30T04:52:43.984Z,5.67
2022-11-30T04:55:06.953Z,5.53
2022-11-30T04:57:30.053Z,5.57
2022-11-30T04:59:53.201Z,5.56
2022-11-30T05:02:16.060Z,5.51
2022-11-30T05:04:38.695Z,5.46
2022-11-30T05:07:01.654Z,5.63
2022-11-30T05:09:24.352Z,5.57
2022-11-30T05:11:48.659Z,5.63
2022-11-30T05:14:11.263Z,5.63
2022-11-30T05:16:33.965Z,5.48
2022-11-30T05:18:56.700Z,5.44
2022-11-30T05:21:19.331Z,5.36
2022-11-30T05:23:41.870Z,5.30
2022-11-30T05:26:04.472Z,5.27
2022-11-30T05:28:26.946Z,5.26
2022-11-30T05:30:49.536Z,5.26
2022-11-30T05:33:12.448Z,5.37
2022-11-30T05:35:36.641Z,5.36
2022-11-30T05:37:59.317Z,5.36
2022-11-30T05:40:21.926Z,5.39
2022-11-30T05:42:44.535Z,5.46
2022-11-30T05:45:07.780Z,5.39
2022-11-30T05:47:30.328Z,5.35
2022-11-30T05:49:52.941Z,5.30
2022-11-30T05:52:15.517Z,5.32
2022-11-30T05:54:38.128Z,5.35
2022-11-30T05:57:00.764Z,5.32
2022-11-30T05:59:23.820Z,5.33
2022-11-30T06:01:46.491Z,5.25
2022-11-30T06:04:09.243Z,5.33
2022-11-30T06:06:32.605Z,5.47
2022-11-30T06:08:55.484Z,5.64
2022-11-30T06:11:18.307Z,5.54
2022-11-30T06:13:41.412Z,5.46
2022-11-30T06:16:05.214Z,5.39
2022-11-30T06:18:28.178Z,5.30
2022-11-30T06:20:50.808Z,5.36
2022-11-30T06:23:13.461Z,5.23
2022-11-30T06:25:36.101Z,5.27
2022-11-30T06:27:59.271Z,5.26
2022-11-30T06:30:22.298Z,5.29
2022-11-30T06:32:45.951Z,5.33
2022-11-30T06:35:08.855Z,5.35
2022-11-30T06:37:35.012Z,5.46
2022-11-30T06:40:06.388Z,5.39
2022-11-30T06:42:31.935Z,5.40
2022-11-30T06:44:54.452Z,5.39
2022-11-30T06:47:17.124Z,5.30
2022-11-30T06:49:39.761Z,5.37
2022-11-30T06:52:02.412Z,5.47
2022-11-30T06:54:24.928Z,5.33
2022-11-30T06:56:48.643Z,5.26
2022-11-30T06:59:11.425Z,5.35
2022-11-30T07:01:34.098Z,5.40
2022-11-30T07:03:56.755Z,5.39
2022-11-30T07:06:20.990Z,5.53
2022-11-30T07:08:44.258Z,5.48
2022-11-30T07:11:08.764Z,5.64
2022-11-30T07:13:31.458Z,5.64
2022-11-30T07:15:54.118Z,5.74
2022-11-30T07:18:17.040Z,5.70
2022-11-30T07:20:40.646Z,5.75
2022-11-30T07:23:22.710Z,5.68
2022-11-30T07:26:04.579Z,5.73
2022-11-30T07:28:27.438Z,5.78
2022-11-30T07:30:50.336Z,5.81
2022-11-30T07:33:13.354Z,5.91
2022-11-30T07:35:36.361Z,5.99
2022-11-30T07:37:59.423Z,6.01
2022-11-30T07:40:22.236Z,5.99
2022-11-30T07:42:44.936Z,6.06
2022-11-30T07:45:08.163Z,6.06
2022-11-30T07:47:30.979Z,6.11
2022-11-30T07:49:53.859Z,6.04
2022-11-30T07:53:31.842Z,6.08
2022-11-30T07:56:17.673Z,6.05
2022-11-30T07:58:41.718Z,6.01
2022-11-30T08:26:35.161Z,6.23
